sensor_id;sensor_type;location;lat;lon;timestamp;pressure;altitude;pressure_sealevel;temperature;humidity
35694;BME280;21812;55.536;37.664;2023-07-20T00:00:51;98416.84;;;13.82;75.63
35694;BME280;21812;55.536;37.664;2023-07-20T00:03:20;98423.28;;;13.81;75.43
35694;BME280;21812;55.536;37.664;2023-07-20T00:05:49;98404.88;;;13.73;75.35
35694;BME280;21812;55.536;37.664;2023-07-20T00:08:16;98416.44;;;13.73;75.47
35694;BME280;21812;55.536;37.664;2023-07-20T00:10:42;98407.56;;;13.73;75.65
35694;BME280;21812;55.536;37.664;2023-07-20T00:13:11;98423.28;;;13.81;75.46
35694;BME280;21812;55.536;37.664;2023-07-20T00:15:37;98427.50;;;13.77;75.04
35694;BME280;21812;55.536;37.664;2023-07-20T00:18:06;98429.47;;;13.81;75.29
35694;BME280;21812;55.536;37.664;2023-07-20T00:20:32;98430.25;;;13.82;74.89
35694;BME280;21812;55.536;37.664;2023-07-20T00:22:58;98422.94;;;13.77;75.07
35694;BME280;21812;55.536;37.664;2023-07-20T00:25:24;98433.59;;;13.72;75.37
35694;BME280;21812;55.536;37.664;2023-07-20T00:27:50;98444.56;;;13.71;75.14
35694;BME280;21812;55.536;37.664;2023-07-20T00:30:17;98435.59;;;13.65;75.51
35694;BME280;21812;55.536;37.664;2023-07-20T00:32:44;98438.06;;;13.66;75.46
35694;BME280;21812;55.536;37.664;2023-07-20T00:35:10;98441.47;;;13.62;75.99
35694;BME280;21812;55.536;37.664;2023-07-20T00:37:38;98431.06;;;13.65;75.77
35694;BME280;21812;55.536;37.664;2023-07-20T00:40:05;98427.72;;;13.58;75.64
35694;BME280;21812;55.536;37.664;2023-07-20T00:42:33;98439.50;;;13.57;75.65
35694;BME280;21812;55.536;37.664;2023-07-20T00:45:02;98436.34;;;13.60;75.85
35694;BME280;21812;55.536;37.664;2023-07-20T00:47:31;98437.38;;;13.59;75.85
35694;BME280;21812;55.536;37.664;2023-07-20T00:49:58;98430.41;;;13.58;75.96
35694;BME280;21812;55.536;37.664;2023-07-20T00:52:25;98436.25;;;13.55;75.95
35694;BME280;21812;55.536;37.664;2023-07-20T00:54:53;98430.81;;;13.50;76.22
35694;BME280;21812;55.536;37.664;2023-07-20T00:57:23;98425.34;;;13.45;76.38
35694;BME280;21812;55.536;37.664;2023-07-20T00:59:50;98436.75;;;13.52;76.10
35694;BME280;21812;55.536;37.664;2023-07-20T01:02:16;98446.84;;;13.62;77.90
35694;BME280;21812;55.536;37.664;2023-07-20T01:04:42;98429.25;;;13.54;76.17
35694;BME280;21812;55.536;37.664;2023-07-20T01:07:23;98430.53;;;13.52;76.47
35694;BME280;21812;55.536;37.664;2023-07-20T01:10:11;98427.72;;;13.58;76.31
35694;BME280;21812;55.536;37.664;2023-07-20T01:12:42;98425.03;;;13.58;77.60
35694;BME280;21812;55.536;37.664;2023-07-20T01:15:09;98437.25;;;13.66;76.10
35694;BME280;21812;55.536;37.664;2023-07-20T01:17:36;98433.66;;;13.60;75.89
35694;BME280;21812;55.536;37.664;2023-07-20T01:20:02;98434.63;;;13.54;75.92
35694;BME280;21812;55.536;37.664;2023-07-20T01:33:38;98399.53;;;13.15;76.78
35694;BME280;21812;55.536;37.664;2023-07-20T01:36:05;98437.22;;;13.49;77.09
35694;BME280;21812;55.536;37.664;2023-07-20T01:38:31;98442.56;;;13.49;76.52
35694;BME280;21812;55.536;37.664;2023-07-20T01:40:57;98433.94;;;13.47;76.91
35694;BME280;21812;55.536;37.664;2023-07-20T01:43:24;98440.06;;;13.59;77.18
35694;BME280;21812;55.536;37.664;2023-07-20T01:45:49;98442.03;;;13.64;76.32
35694;BME280;21812;55.536;37.664;2023-07-20T01:48:15;98440.06;;;13.59;76.29
35694;BME280;21812;55.536;37.664;2023-07-20T01:50:41;98444.53;;;13.54;76.62
35694;BME280;21812;55.536;37.664;2023-07-20T01:53:08;98441.44;;;13.45;77.23
35694;BME280;21812;55.536;37.664;2023-07-20T01:55:34;98448.41;;;13.46;77.25
35694;BME280;21812;55.536;37.664;2023-07-20T01:57:59;98452.50;;;13.48;77.20
35694;BME280;21812;55.536;37.664;2023-07-20T02:00:26;98449.31;;;13.52;77.01
35694;BME280;21812;55.536;37.664;2023-07-20T02:02:52;98445.81;;;13.51;77.46
35694;BME280;21812;55.536;37.664;2023-07-20T02:05:18;98441.91;;;13.42;77.19
35694;BME280;21812;55.536;37.664;2023-07-20T02:07:43;98450.63;;;13.49;77.04
35694;BME280;21812;55.536;37.664;2023-07-20T02:10:09;98443.38;;;13.49;77.09
35694;BME280;21812;55.536;37.664;2023-07-20T02:12:35;98446.50;;;13.58;77.71
35694;BME280;21812;55.536;37.664;2023-07-20T02:15:02;98452.03;;;13.68;77.85
35694;BME280;21812;55.536;37.664;2023-07-20T02:17:30;98451.56;;;13.72;76.77
35694;BME280;21812;55.536;37.664;2023-07-20T02:20:16;98446.59;;;13.63;76.59
35694;BME280;21812;55.536;37.664;2023-07-20T02:22:42;98444.38;;;13.60;76.63
35694;BME280;21812;55.536;37.664;2023-07-20T02:25:08;98450.94;;;13.53;77.24
35694;BME280;21812;55.536;37.664;2023-07-20T02:27:34;98455.97;;;13.49;77.43
35694;BME280;21812;55.536;37.664;2023-07-20T02:30:00;98452.72;;;13.47;77.25
35694;BME280;21812;55.536;37.664;2023-07-20T02:32:27;98442.97;;;13.41;77.64
35694;BME280;21812;55.536;37.664;2023-07-20T02:34:53;98453.75;;;13.46;77.77
35694;BME280;21812;55.536;37.664;2023-07-20T02:37:19;98457.84;;;13.48;77.80
35694;BME280;21812;55.536;37.664;2023-07-20T02:39:45;98456.44;;;13.46;77.62
35694;BME280;21812;55.536;37.664;2023-07-20T02:42:11;98454.59;;;13.46;78.06
35694;BME280;21812;55.536;37.664;2023-07-20T02:44:37;98452.03;;;13.68;79.15
35694;BME280;21812;55.536;37.664;2023-07-20T02:47:02;98464.66;;;13.85;77.31
35694;BME280;21812;55.536;37.664;2023-07-20T02:49:28;98457.75;;;13.89;78.92
35694;BME280;21812;55.536;37.664;2023-07-20T02:51:54;98468.41;;;13.84;77.21
35694;BME280;21812;55.536;37.664;2023-07-20T02:54:20;98460.50;;;13.77;77.02
35694;BME280;21812;55.536;37.664;2023-07-20T02:56:46;98464.25;;;13.93;78.39
35694;BME280;21812;55.536;37.664;2023-07-20T02:59:12;98468.41;;;13.84;76.74
35694;BME280;21812;55.536;37.664;2023-07-20T03:01:38;98458.72;;;13.83;76.82
35694;BME280;21812;55.536;37.664;2023-07-20T03:04:04;98480.78;;;13.85;76.50
35694;BME280;21812;55.536;37.664;2023-07-20T03:06:30;98469.88;;;13.75;76.80
35694;BME280;21812;55.536;37.664;2023-07-20T03:08:55;98468.66;;;13.82;77.68
35694;BME280;21812;55.536;37.664;2023-07-20T03:11:22;98470.44;;;13.77;77.19
35694;BME280;21812;55.536;37.664;2023-07-20T03:13:48;98473.03;;;13.72;76.97
35694;BME280;21812;55.536;37.664;2023-07-20T03:16:15;98477.25;;;13.67;77.17
35694;BME280;21812;55.536;37.664;2023-07-20T03:18:41;98479.94;;;13.67;77.49
35694;BME280;21812;55.536;37.664;2023-07-20T03:21:08;98488.72;;;13.80;77.63
35694;BME280;21812;55.536;37.664;2023-07-20T03:23:37;98478.91;;;13.85;76.50
35694;BME280;21812;55.536;37.664;2023-07-20T03:26:03;98477.69;;;13.93;77.59
35694;BME280;21812;55.536;37.664;2023-07-20T03:28:30;98477.31;;;14.01;77.09
35694;BME280;21812;55.536;37.664;2023-07-20T03:30:57;98476.41;;;14.13;76.43
35694;BME280;21812;55.536;37.664;2023-07-20T03:33:28;98452.41;;;14.06;75.87
35694;BME280;21812;55.536;37.664;2023-07-20T03:35:57;98479.72;;;14.20;75.54
35694;BME280;21812;55.536;37.664;2023-07-20T03:38:24;98483.25;;;14.20;76.09
35694;BME280;21812;55.536;37.664;2023-07-20T03:40:55;98484.31;;;14.36;77.91
35694;BME280;21812;55.536;37.664;2023-07-20T03:43:22;98479.91;;;14.47;79.72
35694;BME280;21812;55.536;37.664;2023-07-20T03:45:48;98478.50;;;14.44;76.80
35694;BME280;21812;55.536;37.664;2023-07-20T03:48:19;98480.22;;;14.51;75.52
35694;BME280;21812;55.536;37.664;2023-07-20T03:50:45;98478.44;;;14.39;74.88
35694;BME280;21812;55.536;37.664;2023-07-20T03:53:12;98475.91;;;14.50;75.96
35694;BME280;21812;55.536;37.664;2023-07-20T03:55:38;98481.84;;;14.52;75.30
35694;BME280;21812;55.536;37.664;2023-07-20T03:58:06;98478.91;;;14.53;74.33
35694;BME280;21812;55.536;37.664;2023-07-20T04:00:32;98477.53;;;14.51;74.71
35694;BME280;21812;55.536;37.664;2023-07-20T04:02:58;98481.38;;;14.55;74.57
35694;BME280;21812;55.536;37.664;2023-07-20T04:05:24;98487.97;;;14.64;74.66
35694;BME280;21812;55.536;37.664;2023-07-20T04:07:51;98483.97;;;14.66;74.25
35694;BME280;21812;55.536;37.664;2023-07-20T04:10:18;98493.16;;;14.71;75.73
35694;BME280;21812;55.536;37.664;2023-07-20T04:12:44;98500.44;;;14.70;74.62
35694;BME280;21812;55.536;37.664;2023-07-20T04:15:13;98493.91;;;14.66;74.26
35694;BME280;21812;55.536;37.664;2023-07-20T04:17:39;98498.47;;;14.65;74.23
35694;BME280;21812;55.536;37.664;2023-07-20T04:20:07;98488.50;;;14.83;76.54
35694;BME280;21812;55.536;37.664;2023-07-20T04:22:33;98497.16;;;14.85;74.10
35694;BME280;21812;55.536;37.664;2023-07-20T04:24:59;98490.28;;;14.77;73.24
35694;BME280;21812;55.536;37.664;2023-07-20T04:27:25;98497.56;;;14.77;73.89
35694;BME280;21812;55.536;37.664;2023-07-20T04:29:52;98500.88;;;14.84;77.25
35694;BME280;21812;55.536;37.664;2023-07-20T04:32:17;98504.94;;;14.86;74.31
35694;BME280;21812;55.536;37.664;2023-07-20T04:34:44;98500.63;;;14.85;73.59
35694;BME280;21812;55.536;37.664;2023-07-20T04:37:09;98496.59;;;15.05;74.79
35694;BME280;21812;55.536;37.664;2023-07-20T04:39:35;98492.09;;;15.33;80.11
35694;BME280;21812;55.536;37.664;2023-07-20T04:42:06;98500.09;;;15.28;73.79
35694;BME280;21812;55.536;37.664;2023-07-20T04:44:31;98499.31;;;15.27;72.81
35694;BME280;21812;55.536;37.664;2023-07-20T04:46:58;98497.88;;;15.19;73.34
35694;BME280;21812;55.536;37.664;2023-07-20T04:49:23;98505.38;;;15.17;72.20
35694;BME280;21812;55.536;37.664;2023-07-20T04:51:49;98495.59;;;15.11;72.35
35694;BME280;21812;55.536;37.664;2023-07-20T04:54:16;98504.78;;;15.15;71.58
35694;BME280;21812;55.536;37.664;2023-07-20T04:56:42;98496.47;;;15.17;71.73
35694;BME280;21812;55.536;37.664;2023-07-20T04:59:11;98503.84;;;15.27;72.30
35694;BME280;21812;55.536;37.664;2023-07-20T05:01:36;98498.78;;;15.30;70.83
35694;BME280;21812;55.536;37.664;2023-07-20T05:04:02;98504.00;;;15.37;72.37
35694;BME280;21812;55.536;37.664;2023-07-20T05:06:28;98507.34;;;15.49;71.16
35694;BME280;21812;55.536;37.664;2023-07-20T05:08:54;98504.22;;;15.57;70.10
35694;BME280;21812;55.536;37.664;2023-07-20T05:11:21;98508.97;;;15.50;69.78
35694;BME280;21812;55.536;37.664;2023-07-20T05:13:46;98516.84;;;15.57;71.11
35694;BME280;21812;55.536;37.664;2023-07-20T05:16:13;98513.84;;;15.53;69.41
35694;BME280;21812;55.536;37.664;2023-07-20T05:18:38;98511.69;;;15.50;69.27
35694;BME280;21812;55.536;37.664;2023-07-20T05:21:05;98528.00;;;15.66;69.93
35694;BME280;21812;55.536;37.664;2023-07-20T05:23:31;98511.88;;;15.93;78.98
35694;BME280;21812;55.536;37.664;2023-07-20T05:25:59;98520.91;;;15.81;70.07
35694;BME280;21812;55.536;37.664;2023-07-20T05:28:26;98514.09;;;15.74;69.09
35694;BME280;21812;55.536;37.664;2023-07-20T05:30:53;98516.22;;;15.72;68.78
35694;BME280;21812;55.536;37.664;2023-07-20T05:33:22;98508.00;;;15.83;70.33
35694;BME280;21812;55.536;37.664;2023-07-20T05:35:48;98507.28;;;15.88;68.22
35694;BME280;21812;55.536;37.664;2023-07-20T05:38:14;98505.16;;;15.95;68.50
35694;BME280;21812;55.536;37.664;2023-07-20T05:40:44;98499.09;;;16.10;72.42
35694;BME280;21812;55.536;37.664;2023-07-20T05:43:10;98500.50;;;16.13;68.51
35694;BME280;21812;55.536;37.664;2023-07-20T05:45:36;98495.25;;;16.28;71.05
35694;BME280;21812;55.536;37.664;2023-07-20T05:48:02;98491.50;;;16.34;67.25
35694;BME280;21812;55.536;37.664;2023-07-20T05:50:28;98484.34;;;16.50;69.59
35694;BME280;21812;55.536;37.664;2023-07-20T05:52:54;98495.94;;;16.51;68.35
35694;BME280;21812;55.536;37.664;2023-07-20T05:55:20;98491.56;;;16.45;65.25
35694;BME280;21812;55.536;37.664;2023-07-20T05:57:46;98506.09;;;16.38;64.17
35694;BME280;21812;55.536;37.664;2023-07-20T06:00:13;98498.00;;;16.38;63.78
35694;BME280;21812;55.536;37.664;2023-07-20T06:02:41;98487.22;;;16.38;63.61
35694;BME280;21812;55.536;37.664;2023-07-20T06:05:08;98497.25;;;16.48;64.94
35694;BME280;21812;55.536;37.664;2023-07-20T06:07:38;98494.34;;;16.55;64.02
35694;BME280;21812;55.536;37.664;2023-07-20T06:10:06;98492.28;;;16.67;66.27
35694;BME280;21812;55.536;37.664;2023-07-20T06:12:32;98502.28;;;16.72;61.48
35694;BME280;21812;55.536;37.664;2023-07-20T06:15:02;98451.72;;;16.47;61.44
35694;BME280;21812;55.536;37.664;2023-07-20T06:17:31;98497.03;;;16.87;65.55
35694;BME280;21812;55.536;37.664;2023-07-20T06:19:58;98498.41;;;17.00;63.56
35694;BME280;21812;55.536;37.664;2023-07-20T06:22:24;98489.53;;;16.99;60.93
35694;BME280;21812;55.536;37.664;2023-07-20T06:24:49;98500.84;;;17.02;61.92
35694;BME280;21812;55.536;37.664;2023-07-20T06:27:15;98494.66;;;17.01;59.21
35694;BME280;21812;55.536;37.664;2023-07-20T06:29:41;98506.25;;;17.02;60.07
35694;BME280;21812;55.536;37.664;2023-07-20T06:32:07;98501.69;;;17.02;59.16
35694;BME280;21812;55.536;37.664;2023-07-20T06:34:33;98508.69;;;17.03;59.71
35694;BME280;21812;55.536;37.664;2023-07-20T06:37:03;98503.28;;;17.03;59.18
35694;BME280;21812;55.536;37.664;2023-07-20T06:39:30;98515.44;;;17.06;59.54
35694;BME280;21812;55.536;37.664;2023-07-20T06:41:55;98496.34;;;17.12;58.56
35694;BME280;21812;55.536;37.664;2023-07-20T06:44:21;98505.81;;;17.20;59.09
35694;BME280;21812;55.536;37.664;2023-07-20T06:46:47;98496.13;;;17.24;58.52
35694;BME280;21812;55.536;37.664;2023-07-20T06:49:24;98494.75;;;17.27;57.80
35694;BME280;21812;55.536;37.664;2023-07-20T06:51:51;98493.19;;;17.31;57.63
35694;BME280;21812;55.536;37.664;2023-07-20T06:54:17;98504.78;;;17.31;56.29
35694;BME280;21812;55.536;37.664;2023-07-20T06:56:42;98499.66;;;17.35;56.83
35694;BME280;21812;55.536;37.664;2023-07-20T06:59:08;98498.59;;;17.41;57.63
35694;BME280;21812;55.536;37.664;2023-07-20T07:01:34;98512.94;;;17.47;57.72
35694;BME280;21812;55.536;37.664;2023-07-20T07:03:59;98503.78;;;17.48;57.48
35694;BME280;21812;55.536;37.664;2023-07-20T07:06:25;98504.03;;;17.51;58.20
35694;BME280;21812;55.536;37.664;2023-07-20T07:08:53;98506.75;;;17.56;57.29
35694;BME280;21812;55.536;37.664;2023-07-20T07:11:21;98480.75;;;17.30;57.14
35694;BME280;21812;55.536;37.664;2023-07-20T07:13:47;98490.84;;;17.60;56.49
35694;BME280;21812;55.536;37.664;2023-07-20T07:16:15;98511.66;;;17.70;55.85
35694;BME280;21812;55.536;37.664;2023-07-20T07:18:45;98502.22;;;17.77;55.17
35694;BME280;21812;55.536;37.664;2023-07-20T07:21:11;98506.53;;;17.84;55.93
35694;BME280;21812;55.536;37.664;2023-07-20T07:23:40;98516.03;;;17.91;55.42
35694;BME280;21812;55.536;37.664;2023-07-20T07:26:05;98519.84;;;17.95;54.33
35694;BME280;21812;55.536;37.664;2023-07-20T07:28:31;98504.72;;;18.00;54.68
35694;BME280;21812;55.536;37.664;2023-07-20T07:31:00;98520.38;;;18.03;53.39
35694;BME280;21812;55.536;37.664;2023-07-20T07:33:26;98512.84;;;18.10;54.12
35694;BME280;21812;55.536;37.664;2023-07-20T07:35:52;98526.91;;;18.17;54.14
35694;BME280;21812;55.536;37.664;2023-07-20T07:38:19;98517.44;;;18.14;54.17
35694;BME280;21812;55.536;37.664;2023-07-20T07:40:45;98535.25;;;18.15;54.60
35694;BME280;21812;55.536;37.664;2023-07-20T07:43:12;98528.50;;;18.23;54.39
35694;BME280;21812;55.536;37.664;2023-07-20T07:45:40;98521.78;;;18.36;54.07
35694;BME280;21812;55.536;37.664;2023-07-20T07:48:06;98524.72;;;18.50;53.68
35694;BME280;21812;55.536;37.664;2023-07-20T07:50:33;98517.97;;;18.58;53.95
35694;BME280;21812;55.536;37.664;2023-07-20T07:52:59;98518.50;;;18.60;54.22
35694;BME280;21812;55.536;37.664;2023-07-20T07:55:25;98526.63;;;18.65;53.88
35694;BME280;21812;55.536;37.664;2023-07-20T07:57:54;98521.47;;;18.68;52.87
35694;BME280;21812;55.536;37.664;2023-07-20T08:00:20;98511.47;;;18.79;52.80
35694;BME280;21812;55.536;37.664;2023-07-20T08:02:46;98522.03;;;18.81;52.82
35694;BME280;21812;55.536;37.664;2023-07-20T08:05:14;98533.38;;;18.83;52.21
35694;BME280;21812;55.536;37.664;2023-07-20T08:07:40;98526.38;;;18.87;51.08
35694;BME280;21812;55.536;37.664;2023-07-20T08:10:06;98514.41;;;18.98;51.83
35694;BME280;21812;55.536;37.664;2023-07-20T08:12:33;98525.75;;;19.05;51.37
35694;BME280;21812;55.536;37.664;2023-07-20T08:14:58;98524.69;;;19.11;51.26
35694;BME280;21812;55.536;37.664;2023-07-20T08:17:24;98528.47;;;19.10;51.04
35694;BME280;21812;55.536;37.664;2023-07-20T08:19:50;98528.44;;;19.16;50.83
35694;BME280;21812;55.536;37.664;2023-07-20T08:22:16;98523.03;;;19.16;51.08
35694;BME280;21812;55.536;37.664;2023-07-20T08:24:42;98521.94;;;19.17;51.26
35694;BME280;21812;55.536;37.664;2023-07-20T08:27:09;98528.13;;;19.32;51.79
35694;BME280;21812;55.536;37.664;2023-07-20T08:29:36;98527.75;;;19.49;51.62
35694;BME280;21812;55.536;37.664;2023-07-20T08:32:02;98524.78;;;19.56;50.35
35694;BME280;21812;55.536;37.664;2023-07-20T08:34:30;98526.34;;;19.67;49.30
35694;BME280;21812;55.536;37.664;2023-07-20T08:36:56;98525.78;;;19.76;48.88
35694;BME280;21812;55.536;37.664;2023-07-20T08:39:23;98513.88;;;19.77;49.25
35694;BME280;21812;55.536;37.664;2023-07-20T08:41:50;98525.75;;;19.81;50.07
35694;BME280;21812;55.536;37.664;2023-07-20T08:44:17;98514.66;;;19.77;49.74
35694;BME280;21812;55.536;37.664;2023-07-20T08:46:43;98524.34;;;19.88;50.08
35694;BME280;21812;55.536;37.664;2023-07-20T08:49:11;98537.53;;;20.05;49.27
35694;BME280;21812;55.536;37.664;2023-07-20T08:51:38;98523.72;;;20.02;49.56
35694;BME280;21812;55.536;37.664;2023-07-20T08:54:06;98525.22;;;19.84;49.87
35694;BME280;21812;55.536;37.664;2023-07-20T08:56:33;98521.47;;;19.64;50.89
35694;BME280;21812;55.536;37.664;2023-07-20T08:59:00;98539.16;;;19.51;50.82
35694;BME280;21812;55.536;37.664;2023-07-20T09:01:28;98542.47;;;19.33;51.25
35694;BME280;21812;55.536;37.664;2023-07-20T09:03:55;98533.81;;;19.21;52.59
35694;BME280;21812;55.536;37.664;2023-07-20T09:06:21;98534.13;;;19.14;52.80
35694;BME280;21812;55.536;37.664;2023-07-20T09:08:46;98522.50;;;19.13;53.12
35694;BME280;21812;55.536;37.664;2023-07-20T09:11:12;98526.22;;;19.28;53.16
35694;BME280;21812;55.536;37.664;2023-07-20T09:13:41;98527.72;;;19.60;52.98
35694;BME280;21812;55.536;37.664;2023-07-20T09:16:07;98527.59;;;19.90;51.81
35694;BME280;21812;55.536;37.664;2023-07-20T09:18:32;98530.44;;;20.15;51.49
35694;BME280;21812;55.536;37.664;2023-07-20T09:21:05;98524.66;;;20.21;50.79
35694;BME280;21812;55.536;37.664;2023-07-20T09:23:32;98537.66;;;20.24;50.87
35694;BME280;21812;55.536;37.664;2023-07-20T09:25:58;98538.84;;;20.13;50.33
35694;BME280;21812;55.536;37.664;2023-07-20T09:28:24;98542.94;;;20.05;50.63
35694;BME280;21812;55.536;37.664;2023-07-20T09:30:50;98545.41;;;20.02;51.65
35694;BME280;21812;55.536;37.664;2023-07-20T09:33:21;98560.88;;;19.96;52.05
35694;BME280;21812;55.536;37.664;2023-07-20T09:35:46;98543.88;;;19.85;53.24
35694;BME280;21812;55.536;37.664;2023-07-20T09:38:14;98518.16;;;19.83;53.74
35694;BME280;21812;55.536;37.664;2023-07-20T09:40:40;98542.63;;;20.12;52.46
35694;BME280;21812;55.536;37.664;2023-07-20T09:43:10;98547.38;;;20.30;52.22
35694;BME280;21812;55.536;37.664;2023-07-20T09:45:40;98536.09;;;20.53;51.79
35694;BME280;21812;55.536;37.664;2023-07-20T09:48:10;98530.75;;;20.77;51.75
35694;BME280;21812;55.536;37.664;2023-07-20T09:50:48;98509.56;;;20.79;52.37
35694;BME280;21812;55.536;37.664;2023-07-20T09:53:14;98538.13;;;21.00;50.94
35694;BME280;21812;55.536;37.664;2023-07-20T09:55:47;98526.56;;;20.89;49.34
35694;BME280;21812;55.536;37.664;2023-07-20T09:58:14;98547.88;;;20.72;49.51
35694;BME280;21812;55.536;37.664;2023-07-20T10:00:41;98528.81;;;20.48;50.54
35694;BME280;21812;55.536;37.664;2023-07-20T10:03:20;98532.94;;;20.75;50.36
35694;BME280;21812;55.536;37.664;2023-07-20T10:05:52;98534.41;;;20.91;49.76
35694;BME280;21812;55.536;37.664;2023-07-20T10:08:24;98535.59;;;20.80;50.85
35694;BME280;21812;55.536;37.664;2023-07-20T10:10:50;98541.69;;;20.66;51.13
35694;BME280;21812;55.536;37.664;2023-07-20T10:13:17;98530.91;;;20.56;50.82
35694;BME280;21812;55.536;37.664;2023-07-20T10:15:46;98524.78;;;20.75;50.74
35694;BME280;21812;55.536;37.664;2023-07-20T10:18:44;98545.22;;;21.20;50.63
35694;BME280;21812;55.536;37.664;2023-07-20T10:21:15;98502.50;;;21.55;48.24
35694;BME280;21812;55.536;37.664;2023-07-20T10:23:42;98528.56;;;22.13;46.40
35694;BME280;21812;55.536;37.664;2023-07-20T10:26:08;98502.28;;;22.28;45.74
35694;BME280;21812;55.536;37.664;2023-07-20T10:28:36;98520.97;;;22.48;45.27
35694;BME280;21812;55.536;37.664;2023-07-20T10:31:02;98515.13;;;22.88;44.53
35694;BME280;21812;55.536;37.664;2023-07-20T10:33:28;98525.16;;;23.06;44.17
35694;BME280;21812;55.536;37.664;2023-07-20T10:35:55;98520.81;;;23.47;43.14
35694;BME280;21812;55.536;37.664;2023-07-20T10:43:45;98529.25;;;23.03;43.82
35694;BME280;21812;55.536;37.664;2023-07-20T10:46:12;98531.44;;;23.01;44.45
35694;BME280;21812;55.536;37.664;2023-07-20T10:49:01;98545.63;;;23.45;44.50
35694;BME280;21812;55.536;37.664;2023-07-20T10:51:50;98535.13;;;23.25;43.38
35694;BME280;21812;55.536;37.664;2023-07-20T10:56:47;98536.53;;;23.64;44.68
35694;BME280;21812;55.536;37.664;2023-07-20T11:01:49;98546.22;;;23.56;42.76
35694;BME280;21812;55.536;37.664;2023-07-20T11:04:16;98523.03;;;23.45;43.59
35694;BME280;21812;55.536;37.664;2023-07-20T11:06:45;98529.97;;;23.78;41.10
35694;BME280;21812;55.536;37.664;2023-07-20T11:09:13;98535.13;;;24.39;39.95
35694;BME280;21812;55.536;37.664;2023-07-20T11:11:47;98506.63;;;24.76;39.58
35694;BME280;21812;55.536;37.664;2023-07-20T11:14:21;98534.41;;;25.41;38.67
35694;BME280;21812;55.536;37.664;2023-07-20T11:16:48;98529.81;;;25.19;38.81
35694;BME280;21812;55.536;37.664;2023-07-20T11:21:54;98535.97;;;24.71;40.01
35694;BME280;21812;55.536;37.664;2023-07-20T11:24:21;98548.28;;;24.37;40.39
35694;BME280;21812;55.536;37.664;2023-07-20T11:26:51;98541.97;;;23.91;41.96
35694;BME280;21812;55.536;37.664;2023-07-20T11:29:19;98541.09;;;23.40;42.94
35694;BME280;21812;55.536;37.664;2023-07-20T11:31:45;98570.22;;;23.26;44.05
35694;BME280;21812;55.536;37.664;2023-07-20T11:36:43;98560.88;;;22.86;45.80
35694;BME280;21812;55.536;37.664;2023-07-20T11:39:10;98571.97;;;22.89;46.00
35694;BME280;21812;55.536;37.664;2023-07-20T11:41:37;98559.91;;;23.09;45.53
35694;BME280;21812;55.536;37.664;2023-07-20T11:44:04;98567.91;;;23.47;45.23
35694;BME280;21812;55.536;37.664;2023-07-20T11:46:32;98558.91;;;23.88;44.00
35694;BME280;21812;55.536;37.664;2023-07-20T11:49:01;98555.53;;;24.42;42.72
35694;BME280;21812;55.536;37.664;2023-07-20T11:51:28;98554.53;;;25.14;41.71
35694;BME280;21812;55.536;37.664;2023-07-20T11:53:55;98543.41;;;25.99;39.83
35694;BME280;21812;55.536;37.664;2023-07-20T11:56:23;98539.59;;;26.91;37.55
35694;BME280;21812;55.536;37.664;2023-07-20T11:58:48;98540.31;;;27.26;35.45
35694;BME280;21812;55.536;37.664;2023-07-20T12:01:15;98525.22;;;27.71;35.02
35694;BME280;21812;55.536;37.664;2023-07-20T12:03:42;98525.28;;;27.24;35.52
35694;BME280;21812;55.536;37.664;2023-07-20T12:06:10;98532.28;;;26.39;37.18
35694;BME280;21812;55.536;37.664;2023-07-20T12:08:39;98538.97;;;25.63;38.80
35694;BME280;21812;55.536;37.664;2023-07-20T12:11:07;98543.03;;;24.94;40.09
35694;BME280;21812;55.536;37.664;2023-07-20T12:13:42;98530.97;;;24.42;40.84
35694;BME280;21812;55.536;37.664;2023-07-20T12:16:13;98546.59;;;23.91;42.43
35694;BME280;21812;55.536;37.664;2023-07-20T12:18:43;98552.47;;;23.56;44.03
35694;BME280;21812;55.536;37.664;2023-07-20T12:21:10;98549.06;;;23.37;44.36
35694;BME280;21812;55.536;37.664;2023-07-20T12:23:39;98556.22;;;23.33;45.10
35694;BME280;21812;55.536;37.664;2023-07-20T12:26:11;98552.34;;;23.75;45.10
35694;BME280;21812;55.536;37.664;2023-07-20T12:28:40;98552.28;;;23.80;44.72
35694;BME280;21812;55.536;37.664;2023-07-20T12:31:08;98568.19;;;23.73;44.67
35694;BME280;21812;55.536;37.664;2023-07-20T12:33:33;98553.59;;;23.41;44.97
35694;BME280;21812;55.536;37.664;2023-07-20T12:36:00;98551.66;;;23.14;45.51
35694;BME280;21812;55.536;37.664;2023-07-20T12:38:25;98543.97;;;22.89;45.75
35694;BME280;21812;55.536;37.664;2023-07-20T12:40:53;98561.22;;;22.65;45.66
35694;BME280;21812;55.536;37.664;2023-07-20T12:43:21;98558.09;;;22.39;46.39
35694;BME280;21812;55.536;37.664;2023-07-20T12:45:47;98551.56;;;22.21;47.67
35694;BME280;21812;55.536;37.664;2023-07-20T12:48:12;98555.47;;;22.15;48.19
35694;BME280;21812;55.536;37.664;2023-07-20T12:50:38;98566.16;;;22.06;49.29
35694;BME280;21812;55.536;37.664;2023-07-20T12:53:04;98558.25;;;21.91;49.47
35694;BME280;21812;55.536;37.664;2023-07-20T12:55:30;98565.66;;;22.04;49.45
35694;BME280;21812;55.536;37.664;2023-07-20T12:57:55;98556.66;;;22.28;49.53
35694;BME280;21812;55.536;37.664;2023-07-20T13:00:21;98561.06;;;23.50;49.03
35694;BME280;21812;55.536;37.664;2023-07-20T13:02:52;98552.78;;;25.18;47.97
35694;BME280;21812;55.536;37.664;2023-07-20T13:05:17;98545.19;;;25.55;41.56
35694;BME280;21812;55.536;37.664;2023-07-20T13:07:43;98548.09;;;25.50;45.43
35694;BME280;21812;55.536;37.664;2023-07-20T13:10:10;98553.59;;;25.67;41.37
35694;BME280;21812;55.536;37.664;2023-07-20T13:12:37;98558.97;;;25.32;41.09
35694;BME280;21812;55.536;37.664;2023-07-20T13:15:04;98552.34;;;25.82;40.77
35694;BME280;21812;55.536;37.664;2023-07-20T13:17:34;98555.16;;;26.08;40.15